createdAt,value
2019-02-10T00:00:33.350Z,72.01
2019-02-10T00:03:04.363Z,71.76
2019-02-10T00:05:34.534Z,71.49
2019-02-10T00:08:04.730Z,71.68
2019-02-10T00:10:34.969Z,71.75
2019-02-10T00:13:26.663Z,72.01
2019-02-10T00:15:57.101Z,72.12
2019-02-10T00:18:27.264Z,71.89
2019-02-10T00:20:57.453Z,72.04
2019-02-10T00:23:28.015Z,72.06
2019-02-10T00:25:58.193Z,72.28
2019-02-10T00:28:28.392Z,72.27
2019-02-10T00:30:58.754Z,72.26
2019-02-10T00:33:29.153Z,72.50
2019-02-10T00:35:59.346Z,72.50
2019-02-10T00:38:29.568Z,72.49
2019-02-10T00:40:59.781Z,72.36
2019-02-10T00:43:29.956Z,72.23
2019-02-10T00:46:00.220Z,72.72
2019-02-10T00:48:30.424Z,72.68
2019-02-10T00:51:00.774Z,72.61
2019-02-10T00:53:30.957Z,72.70
2019-02-10T00:56:01.089Z,72.96
2019-02-10T00:58:31.345Z,72.69
2019-02-10T01:01:01.507Z,72.98
2019-02-10T01:03:33.007Z,72.74
2019-02-10T01:06:03.542Z,72.96
2019-02-10T01:08:33.942Z,72.91
2019-02-10T01:11:04.101Z,72.83
2019-02-10T01:13:34.330Z,72.82
2019-02-10T01:16:04.631Z,73.00
2019-02-10T01:18:35.701Z,72.86
2019-02-10T01:21:06.021Z,72.71
2019-02-10T01:23:38.124Z,72.73
2019-02-10T01:26:08.514Z,72.56
2019-02-10T01:28:38.808Z,72.71
2019-02-10T01:31:09.110Z,72.98
2019-02-10T01:33:39.415Z,73.12
2019-02-10T01:36:09.588Z,72.84
2019-02-10T01:38:39.792Z,73.16
2019-02-10T01:41:10.038Z,72.70
2019-02-10T01:43:40.222Z,72.90
2019-02-10T01:46:10.636Z,72.95
2019-02-10T01:48:40.788Z,72.74
2019-02-10T01:51:12.216Z,72.82
2019-02-10T01:53:42.476Z,72.98
2019-02-10T01:56:12.644Z,72.95
2019-02-10T01:58:42.834Z,73.22
2019-02-10T02:01:13.274Z,73.23
2019-02-10T02:03:44.126Z,73.29
2019-02-10T02:06:14.326Z,73.26
2019-02-10T02:08:45.297Z,73.21
2019-02-10T02:11:15.450Z,73.50
2019-02-10T02:13:45.673Z,73.59
2019-02-10T02:16:15.883Z,73.92
2019-02-10T02:18:46.042Z,73.69
2019-02-10T02:21:16.202Z,73.73
2019-02-10T02:23:46.561Z,73.63
2019-02-10T02:26:16.778Z,73.43
2019-02-10T02:28:46.987Z,73.74
2019-02-10T02:31:17.178Z,73.76
2019-02-10T02:33:48.397Z,73.99
2019-02-10T02:36:18.641Z,73.95
2019-02-10T02:38:48.969Z,73.77
2019-02-10T02:41:19.921Z,73.69
2019-02-10T02:43:50.096Z,73.58
2019-02-10T02:46:20.369Z,73.41
2019-02-10T02:48:50.532Z,73.51
2019-02-10T02:51:20.711Z,73.03
2019-02-10T02:53:50.894Z,72.92
2019-02-10T02:56:21.351Z,72.80
2019-02-10T02:58:51.543Z,72.54
2019-02-10T03:01:21.726Z,72.45
2019-02-10T03:03:52.372Z,72.69
2019-02-10T03:06:23.660Z,72.39
2019-02-10T03:08:53.829Z,71.60
2019-02-10T03:11:24.342Z,71.90
2019-02-10T03:13:54.515Z,71.48
2019-02-10T03:16:24.762Z,71.53
2019-02-10T03:18:54.962Z,71.24
2019-02-10T03:21:25.109Z,71.14
2019-02-10T03:23:55.322Z,71.03
2019-02-10T03:26:25.588Z,70.84
2019-02-10T03:28:55.772Z,70.65
2019-02-10T03:31:26.125Z,70.63
2019-02-10T03:33:56.301Z,70.95
2019-02-10T03:36:27.601Z,70.84
2019-02-10T03:38:57.824Z,71.00
2019-02-10T03:41:28.049Z,71.05
2019-02-10T03:43:58.236Z,70.89
2019-02-10T03:46:28.405Z,71.08
2019-02-10T03:48:58.670Z,70.91
2019-02-10T03:51:28.861Z,70.90
2019-02-10T03:53:59.057Z,71.05
2019-02-10T03:56:29.259Z,71.14
2019-02-10T03:58:59.527Z,71.13
2019-02-10T04:01:29.740Z,71.29
2019-02-10T04:04:01.148Z,71.24
2019-02-10T04:06:31.469Z,71.53
2019-02-10T04:09:01.698Z,71.54
2019-02-10T04:11:33.314Z,71.58
2019-02-10T04:14:03.459Z,71.71
2019-02-10T04:16:33.631Z,71.90
2019-02-10T04:19:03.858Z,71.84
2019-02-10T04:21:34.088Z,71.77
2019-02-10T04:24:04.286Z,71.59
2019-02-10T04:26:34.496Z,71.59
2019-02-10T04:29:04.637Z,71.89
2019-02-10T04:31:34.854Z,71.91
2019-02-10T04:34:05.053Z,71.79
2019-02-10T04:36:35.352Z,71.89
2019-02-10T04:39:06.277Z,71.81
2019-02-10T04:41:36.512Z,71.68
2019-02-10T04:44:06.765Z,71.88
2019-02-10T04:46:37.353Z,72.09
2019-02-10T04:49:07.535Z,72.12
2019-02-10T04:51:37.674Z,72.04
2019-02-10T04:54:07.869Z,72.10
2019-02-10T04:56:38.108Z,71.99
2019-02-10T04:59:08.286Z,71.76
2019-02-10T05:01:38.510Z,71.56
2019-02-10T05:04:08.944Z,71.49
2019-02-10T05:06:39.348Z,71.49
2019-02-10T05:09:09.533Z,71.77
2019-02-10T05:11:39.661Z,71.89
2019-02-10T05:14:09.837Z,72.28
2019-02-10T05:16:40.432Z,72.38
2019-02-10T05:19:10.610Z,72.54
2019-02-10T05:21:40.863Z,72.64
2019-02-10T05:24:11.001Z,72.83
2019-02-10T05:26:41.203Z,73.20
2019-02-10T05:29:11.481Z,73.58
2019-02-10T05:31:41.670Z,73.77
2019-02-10T05:34:12.193Z,74.20
2019-02-10T05:36:42.825Z,74.25
2019-02-10T05:39:13.206Z,74.62
2019-02-10T05:41:43.393Z,74.57
2019-02-10T05:44:13.909Z,74.87
2019-02-10T05:46:44.105Z,75.06
2019-02-10T05:49:14.351Z,75.43
2019-02-10T05:51:44.573Z,75.83
2019-02-10T05:54:14.747Z,75.47
2019-02-10T05:56:45.101Z,75.39
2019-02-10T05:59:15.344Z,75.35
2019-02-10T06:02:26.995Z,75.35
2019-02-10T06:05:00.030Z,75.31
2019-02-10T06:07:30.276Z,75.48
2019-02-10T06:10:00.799Z,75.43
2019-02-10T06:12:31.170Z,75.58
2019-02-10T06:15:01.359Z,75.89
2019-02-10T06:17:31.599Z,76.02
2019-02-10T06:20:01.783Z,76.72
2019-02-10T06:22:33.086Z,76.30
2019-02-10T06:25:03.323Z,77.02
2019-02-10T06:27:33.540Z,76.90
2019-02-10T06:30:04.213Z,76.94
2019-02-10T06:32:34.740Z,77.18
2019-02-10T06:35:05.308Z,76.95
2019-02-10T06:37:35.597Z,76.78
2019-02-10T06:40:07.151Z,76.50
2019-02-10T06:42:37.384Z,76.59
2019-02-10T06:45:09.767Z,77.07
2019-02-10T06:47:39.942Z,77.06
2019-02-10T06:50:11.747Z,77.09
2019-02-10T06:52:42.298Z,76.88
2019-02-10T06:55:13.931Z,76.43
2019-02-10T06:57:44.104Z,76.26
2019-02-10T07:00:36.486Z,76.36
2019-02-10T07:03:49.246Z,76.23
2019-02-10T07:06:19.777Z,76.32
2019-02-10T07:08:50.067Z,77.41
2019-02-10T07:11:20.593Z,76.69
2019-02-10T07:14:01.350Z,75.74
2019-02-10T07:16:40.069Z,75.71
2019-02-10T07:19:45.948Z,76.62
2019-02-10T07:23:01.998Z,76.53
2019-02-10T07:26:01.495Z,76.01
2019-02-10T07:29:27.772Z,76.13
2019-02-10T07:32:05.896Z,76.18
2019-02-10T07:35:09.487Z,76.26
2019-02-10T07:37:53.862Z,76.08
2019-02-10T07:40:52.579Z,75.73
2019-02-10T07:44:11.392Z,75.02
2019-02-10T07:47:15.096Z,74.49
2019-02-10T07:50:05.614Z,73.54
2019-02-10T07:52:54.938Z,73.11
2019-02-10T07:56:18.560Z,72.86
2019-02-10T07:59:10.900Z,72.42
2019-02-10T08:02:07.656Z,72.56
2019-02-10T08:05:10.613Z,72.05
2019-02-10T08:08:15.520Z,72.27
2019-02-10T08:11:20.762Z,72.85
2019-02-10T08:14:06.924Z,72.49
2019-02-10T08:16:59.320Z,71.38
2019-02-10T08:19:52.091Z,71.40
2019-02-10T08:23:00.352Z,71.07
2019-02-10T08:26:06.082Z,70.83
2019-02-10T08:29:16.806Z,70.80
2019-02-10T08:32:39.483Z,70.61
2019-02-10T08:35:53.540Z,70.81
2019-02-10T08:38:54.879Z,70.55
2019-02-10T08:41:41.779Z,70.16
2019-02-10T08:45:13.949Z,69.87
2019-02-10T08:48:08.341Z,69.79
2019-02-10T08:51:00.871Z,69.28
2019-02-10T08:53:34.938Z,69.63
2019-02-10T08:56:05.211Z,69.19
2019-02-10T08:58:35.407Z,68.81
2019-02-10T09:01:05.557Z,68.72
2019-02-10T09:03:35.766Z,69.09
2019-02-10T09:06:06.028Z,69.67
2019-02-10T09:08:36.602Z,69.25
2019-02-10T09:11:06.877Z,69.04
2019-02-10T09:13:37.166Z,69.23
2019-02-10T09:16:07.425Z,68.92
2019-02-10T09:18:37.643Z,69.14
2019-02-10T09:21:07.819Z,69.26
2019-02-10T09:23:38.024Z,68.59
2019-02-10T09:26:08.278Z,68.90
2019-02-10T09:28:38.424Z,68.65
2019-02-10T09:31:08.907Z,68.89
2019-02-10T09:33:39.176Z,68.58
2019-02-10T09:36:09.329Z,68.88
2019-02-10T09:38:39.624Z,69.17
2019-02-10T09:41:09.855Z,68.96
2019-02-10T09:43:40.156Z,68.87
2019-02-10T09:46:10.362Z,68.50
2019-02-10T09:48:40.607Z,68.39
2019-02-10T09:51:10.980Z,68.00
2019-02-10T09:53:41.152Z,68.29
2019-02-10T09:56:11.439Z,68.07
2019-02-10T09:58:41.604Z,68.19
2019-02-10T10:01:11.852Z,68.49
2019-02-10T10:03:42.032Z,68.16
2019-02-10T10:06:12.216Z,68.23
2019-02-10T10:08:42.716Z,68.07
2019-02-10T10:11:13.015Z,67.76
2019-02-10T10:13:43.426Z,68.03
2019-02-10T10:16:13.676Z,67.98
2019-02-10T10:18:44.003Z,68.15
2019-02-10T10:21:14.218Z,67.87
2019-02-10T10:23:44.739Z,67.82
2019-02-10T10:26:15.127Z,67.88
2019-02-10T10:28:45.345Z,67.14
2019-02-10T10:31:15.537Z,67.33
2019-02-10T10:33:46.764Z,66.93
2019-02-10T10:36:16.963Z,67.05
2019-02-10T10:38:47.179Z,67.15
2019-02-10T10:41:17.479Z,66.71
2019-02-10T10:43:48.969Z,66.47
2019-02-10T10:46:19.301Z,66.54
2019-02-10T10:48:49.453Z,66.89
2019-02-10T10:51:20.697Z,66.44
2019-02-10T10:53:50.839Z,66.51
2019-02-10T10:56:22.009Z,65.91
2019-02-10T10:58:52.804Z,65.57
2019-02-10T11:01:25.383Z,65.30
2019-02-10T11:03:55.001Z,65.25
2019-02-10T11:06:25.302Z,65.06
2019-02-10T11:08:55.853Z,65.08
2019-02-10T11:11:26.057Z,65.03
2019-02-10T11:13:56.298Z,64.81
2019-02-10T11:16:26.487Z,64.88
2019-02-10T11:18:56.784Z,64.89
2019-02-10T11:21:27.083Z,65.12
2019-02-10T11:23:57.300Z,65.05
2019-02-10T11:26:27.470Z,65.25
2019-02-10T11:28:57.983Z,65.28
2019-02-10T11:31:28.162Z,65.45
2019-02-10T11:33:58.473Z,65.70
2019-02-10T11:36:29.061Z,65.66
2019-02-10T11:38:59.231Z,65.86
2019-02-10T11:41:29.430Z,65.97
2019-02-10T11:43:59.750Z,65.79
2019-02-10T11:46:29.982Z,65.50
2019-02-10T11:49:00.189Z,65.56
2019-02-10T11:51:30.378Z,65.67
2019-02-10T11:54:05.630Z,65.80
2019-02-10T11:56:35.865Z,65.81
2019-02-10T11:59:06.241Z,66.30
2019-02-10T12:01:36.440Z,66.89
2019-02-10T12:04:06.810Z,67.11
2019-02-10T12:06:36.972Z,67.11
2019-02-10T12:09:07.660Z,67.24
2019-02-10T12:11:37.837Z,66.83
2019-02-10T12:14:08.007Z,66.86
2019-02-10T12:16:38.237Z,66.73
2019-02-10T12:19:08.429Z,66.10
2019-02-10T12:21:38.663Z,66.45
2019-02-10T12:24:09.826Z,66.14
2019-02-10T12:26:40.145Z,66.33
2019-02-10T12:29:10.343Z,65.86
2019-02-10T12:31:40.546Z,66.02
2019-02-10T12:34:10.809Z,65.81
2019-02-10T12:36:41.327Z,66.19
2019-02-10T12:39:11.516Z,65.90
2019-02-10T12:41:42.001Z,65.70
2019-02-10T12:44:12.402Z,66.19
2019-02-10T12:46:42.642Z,65.79
2019-02-10T12:49:12.859Z,65.88
2019-02-10T12:51:43.073Z,65.97
2019-02-10T12:54:13.270Z,65.63
2019-02-10T12:56:44.267Z,65.40
2019-02-10T12:59:14.490Z,65.21
2019-02-10T13:01:44.808Z,65.50
2019-02-10T13:04:14.985Z,65.08
2019-02-10T13:06:46.677Z,64.53
2019-02-10T13:09:17.238Z,64.81
2019-02-10T13:11:47.420Z,64.88
2019-02-10T13:14:17.653Z,64.86
2019-02-10T13:16:47.879Z,64.91
2019-02-10T13:19:18.101Z,64.70
2019-02-10T13:21:48.269Z,64.87
2019-02-10T13:24:18.459Z,64.67
2019-02-10T13:26:48.962Z,64.49
2019-02-10T13:29:19.218Z,64.72
2019-02-10T13:31:49.975Z,64.48
2019-02-10T13:34:20.442Z,64.17
2019-02-10T13:36:50.704Z,64.42
2019-02-10T13:39:20.929Z,63.89
2019-02-10T13:41:49.412Z,63.84
2019-02-10T13:44:19.697Z,63.69
2019-02-10T13:46:50.898Z,63.16
2019-02-10T13:49:21.194Z,63.32
2019-02-10T13:51:51.350Z,63.16
2019-02-10T13:54:21.693Z,63.38
2019-02-10T13:56:51.882Z,63.42
2019-02-10T13:59:22.180Z,63.40
2019-02-10T14:01:52.360Z,63.03
2019-02-10T14:04:22.539Z,63.27
2019-02-10T14:06:52.703Z,63.16
2019-02-10T14:09:23.251Z,62.40
2019-02-10T14:11:53.560Z,62.80
2019-02-10T14:14:23.815Z,62.81
2019-02-10T14:16:54.028Z,62.82
2019-02-10T14:19:24.264Z,62.82
2019-02-10T14:21:56.108Z,62.71
2019-02-10T14:24:28.128Z,63.05
2019-02-10T14:26:58.400Z,63.25
2019-02-10T14:29:28.841Z,63.19
2019-02-10T14:31:59.088Z,62.66
2019-02-10T14:34:29.315Z,63.39
2019-02-10T14:36:59.540Z,63.36
2019-02-10T14:39:29.698Z,63.16
2019-02-10T14:41:59.849Z,63.05
2019-02-10T14:44:30.349Z,63.21
2019-02-10T14:47:00.595Z,62.85
2019-02-10T14:49:30.760Z,62.35
2019-02-10T14:52:00.994Z,62.31
2019-02-10T14:54:31.148Z,62.36
2019-02-10T14:57:01.721Z,61.82
2019-02-10T14:59:32.319Z,61.90
2019-02-10T15:02:02.528Z,62.25
2019-02-10T15:04:32.686Z,62.12
2019-02-10T15:07:02.891Z,62.13
2019-02-10T15:09:33.347Z,62.10
2019-02-10T15:12:03.553Z,61.99
2019-02-10T15:14:33.917Z,62.16
2019-02-10T15:17:05.062Z,62.32
2019-02-10T15:19:35.295Z,62.47
2019-02-10T15:22:05.469Z,62.40
2019-02-10T15:24:35.718Z,62.26
2019-02-10T15:27:05.952Z,62.18
2019-02-10T15:29:36.151Z,62.27
2019-02-10T15:32:06.335Z,62.16
2019-02-10T15:34:38.418Z,61.76
2019-02-10T15:37:08.634Z,61.49
2019-02-10T15:39:38.837Z,61.37
2019-02-10T15:42:09.643Z,61.63
2019-02-10T15:44:40.169Z,61.39
2019-02-10T15:47:10.389Z,61.25
2019-02-10T15:49:40.582Z,61.86
2019-02-10T15:52:10.938Z,61.58
2019-02-10T15:54:41.136Z,60.59
2019-02-10T15:57:11.367Z,60.67
2019-02-10T15:59:41.944Z,60.96
2019-02-10T16:02:12.099Z,60.82
2019-02-10T16:04:42.270Z,61.01
2019-02-10T16:07:12.682Z,61.23
2019-02-10T16:09:43.194Z,61.87
2019-02-10T16:12:13.363Z,61.91
2019-02-10T16:14:43.570Z,61.98
2019-02-10T16:17:13.756Z,62.13
2019-02-10T16:19:44.023Z,62.37
2019-02-10T16:22:14.254Z,62.22
2019-02-10T16:24:44.456Z,62.18
2019-02-10T16:27:14.855Z,61.46
2019-02-10T16:29:45.021Z,60.73
2019-02-10T16:32:15.199Z,60.42
2019-02-10T16:34:45.467Z,58.25
2019-02-10T16:37:15.637Z,58.24
2019-02-10T16:39:45.862Z,57.29
2019-02-10T16:42:16.020Z,57.27
2019-02-10T16:44:46.362Z,57.35
2019-02-10T16:47:16.694Z,57.57
2019-02-10T16:49:46.887Z,57.93
2019-02-10T16:52:17.107Z,58.22
2019-02-10T16:54:47.336Z,58.84
2019-02-10T16:57:17.587Z,59.61
2019-02-10T16:59:47.888Z,60.00
2019-02-10T17:02:18.032Z,60.65
2019-02-10T17:04:48.240Z,61.02
2019-02-10T17:07:18.738Z,60.43
2019-02-10T17:09:49.433Z,60.68
2019-02-10T17:12:19.644Z,60.45
2019-02-10T17:14:49.923Z,60.28
2019-02-10T17:17:20.209Z,60.33
2019-02-10T17:19:50.392Z,60.10
2019-02-10T17:22:20.633Z,58.95
2019-02-10T17:24:51.007Z,58.87
2019-02-10T17:27:21.222Z,58.44
2019-02-10T17:29:51.411Z,58.16
2019-02-10T17:32:21.652Z,58.31
2019-02-10T17:34:51.810Z,59.33
2019-02-10T17:37:22.901Z,59.85
2019-02-10T17:39:53.132Z,60.56
2019-02-10T17:42:23.302Z,60.81
2019-02-10T17:44:53.795Z,61.05
2019-02-10T17:47:23.947Z,61.30
2019-02-10T17:49:54.136Z,61.17
2019-02-10T17:52:31.648Z,61.65
2019-02-10T17:54:56.278Z,61.72
2019-02-10T17:57:26.462Z,61.59
2019-02-10T17:59:56.840Z,61.70
2019-02-10T18:02:27.008Z,62.00
2019-02-10T18:04:57.186Z,61.74
2019-02-10T18:07:27.406Z,61.73
2019-02-10T18:09:57.880Z,61.64
2019-02-10T18:12:28.065Z,61.78
2019-02-10T18:15:33.244Z,62.01
2019-02-10T18:18:12.191Z,61.85
2019-02-10T18:20:58.393Z,61.74
2019-02-10T18:23:44.750Z,62.00
2019-02-10T18:26:32.708Z,62.53
2019-02-10T18:29:11.879Z,62.59
2019-02-10T18:31:49.318Z,62.57
2019-02-10T18:34:38.616Z,62.73
2019-02-10T18:37:18.572Z,62.57
2019-02-10T18:40:06.478Z,62.95
2019-02-10T18:42:56.194Z,62.99
2019-02-10T18:45:35.641Z,63.51
2019-02-10T18:48:24.787Z,63.62
2019-02-10T18:51:05.029Z,63.87
2019-02-10T18:53:52.701Z,64.24
2019-02-10T18:56:40.566Z,64.18
2019-02-10T18:59:18.585Z,64.84
2019-02-10T19:02:12.408Z,65.18
2019-02-10T19:04:53.988Z,65.56
2019-02-10T19:07:49.470Z,65.45
2019-02-10T19:10:37.591Z,65.82
2019-02-10T19:13:22.931Z,66.09
2019-02-10T19:16:14.262Z,66.26
2019-02-10T19:19:06.173Z,66.98
2019-02-10T19:21:53.904Z,66.21
2019-02-10T19:24:31.386Z,66.48
2019-02-10T19:27:08.026Z,66.55
2019-02-10T19:29:55.905Z,66.77
2019-02-10T19:32:46.575Z,66.48
2019-02-10T19:35:34.830Z,66.61
2019-02-10T19:38:17.322Z,67.22
2019-02-10T19:41:06.618Z,67.16
2019-02-10T19:43:54.314Z,67.27
2019-02-10T19:46:42.190Z,67.12
2019-02-10T19:49:46.563Z,67.25
2019-02-10T19:52:50.942Z,67.56
2019-02-10T19:55:29.345Z,67.76
2019-02-10T19:58:17.196Z,67.66
2019-02-10T20:00:59.150Z,68.11
2019-02-10T20:03:52.449Z,68.28
2019-02-10T20:06:46.593Z,68.25
2019-02-10T20:09:38.527Z,68.20
2019-02-10T20:12:36.931Z,68.61
2019-02-10T20:15:28.586Z,68.47
2019-02-10T20:18:07.546Z,68.69
2019-02-10T20:21:08.893Z,69.06
2019-02-10T20:23:46.413Z,68.95
2019-02-10T20:26:28.079Z,69.13
2019-02-10T20:29:28.985Z,69.29
2019-02-10T20:32:18.616Z,69.25
2019-02-10T20:34:58.774Z,69.17
2019-02-10T20:37:53.855Z,68.71
2019-02-10T20:40:41.373Z,68.42
2019-02-10T20:43:28.279Z,68.67
2019-02-10T20:46:17.267Z,68.37
2019-02-10T20:49:15.597Z,68.59
2019-02-10T20:52:06.059Z,68.47
2019-02-10T20:54:54.155Z,69.28
2019-02-10T20:57:47.321Z,68.75
2019-02-10T21:00:42.516Z,68.87
2019-02-10T21:03:30.215Z,68.74
2019-02-10T21:06:24.779Z,68.96
2019-02-10T21:09:13.992Z,69.09
2019-02-10T21:11:52.651Z,68.93
2019-02-10T21:14:41.997Z,69.37
2019-02-10T21:17:35.175Z,69.20
2019-02-10T21:20:15.427Z,69.22
2019-02-10T21:22:58.689Z,69.19
2019-02-10T21:25:38.709Z,69.15
2019-02-10T21:28:14.343Z,68.79
2019-02-10T21:31:06.396Z,68.68
2019-02-10T21:33:49.401Z,68.78
2019-02-10T21:36:31.250Z,68.76
2019-02-10T21:39:32.301Z,68.29
2019-02-10T21:42:10.622Z,68.08
2019-02-10T21:44:58.589Z,68.96
2019-02-10T21:47:36.487Z,68.31
2019-02-10T21:50:07.137Z,68.87
2019-02-10T21:52:37.385Z,68.92
2019-02-10T21:55:09.313Z,68.84
2019-02-10T21:57:39.502Z,69.11
2019-02-10T22:00:11.600Z,69.17
2019-02-10T22:02:41.842Z,68.71
2019-02-10T22:05:12.049Z,68.99
2019-02-10T22:07:42.525Z,68.41
2019-02-10T22:10:12.971Z,69.10
2019-02-10T22:12:43.189Z,68.54
2019-02-10T22:15:13.662Z,68.95
2019-02-10T22:17:44.800Z,68.90
2019-02-10T22:20:14.988Z,68.75
2019-02-10T22:22:45.203Z,69.39
2019-02-10T22:25:15.488Z,69.11
2019-02-10T22:27:45.683Z,69.45
2019-02-10T22:30:16.176Z,69.09
2019-02-10T22:32:46.422Z,69.37
2019-02-10T22:35:16.576Z,69.88
2019-02-10T22:37:46.768Z,69.89
2019-02-10T22:40:16.913Z,69.63
2019-02-10T22:42:47.352Z,69.83
2019-02-10T22:45:17.788Z,70.41
2019-02-10T22:47:47.983Z,70.36
2019-02-10T22:50:18.257Z,69.97
2019-02-10T22:52:48.432Z,70.48
2019-02-10T22:55:18.708Z,70.21
2019-02-10T22:57:48.901Z,70.00
2019-02-10T23:00:52.144Z,70.83
2019-02-10T23:03:22.329Z,71.19
2019-02-10T23:05:52.838Z,71.14
2019-02-10T23:08:23.064Z,71.31
2019-02-10T23:10:53.236Z,71.04
2019-02-10T23:13:23.418Z,71.28
2019-02-10T23:15:53.910Z,71.66
2019-02-10T23:18:24.153Z,71.48
2019-02-10T23:20:54.390Z,71.31
2019-02-10T23:23:24.602Z,71.22
2019-02-10T23:25:56.360Z,71.36
2019-02-10T23:28:26.586Z,70.95
2019-02-10T23:30:56.807Z,71.04
2019-02-10T23:33:27.986Z,71.85
2019-02-10T23:35:58.141Z,70.93
2019-02-10T23:38:28.305Z,70.90
2019-02-10T23:40:58.669Z,70.99
2019-02-10T23:43:28.938Z,71.37
2019-02-10T23:45:59.128Z,70.77
2019-02-10T23:48:29.298Z,70.55
2019-02-10T23:50:59.719Z,70.28
2019-02-10T23:53:29.948Z,70.47
2019-02-10T23:56:00.136Z,70.64
2019-02-10T23:58:30.335Z,70.52
